^^
Station Historical Data
Daily Summary for January 30, 2017 Units:  Metric    English   Both
« Previous Day
Next Day »
Daily Weekly Monthly Yearly Custom
  High: Low: Average:
Temperature: 33.1 °C 13.8 °C 24.3 °C
Dew Point: 7.8 °C -2.3 °C 2.9 °C
Humidity: 65% 11% 33%
Wind Speed: 22.7km/h 0km/h 13.4km/h
Wind Gust: 25.7km/h - -
Wind- - SSW
Pressure: 1013.8 hPa 1008.7 hPa -
Precipitation: 0 mm    
Historical Graphs
 
 
Tabular Data for January 30, 2017
Time Temperature Dew Point Pressure Wind Wind Speed Wind Gust Humidity Rainfall Rate (Hourly) solar Conditions
03:22 15.4 °C 6.7 °C 1011.7 hPa SSW 11.1 km/h 14.5 km/h 56% 0 mm 0.0 W/m2
03:37 15.3 °C 6.6 °C 1011.7 hPa SSW 13 km/h 16.1 km/h 56% 0 mm 0.0 W/m2
03:52 15.1 °C 6.6 °C 1011.7 hPa SSW 9.7 km/h 17.7 km/h 57% 0 mm 0.0 W/m2
03:57 15 °C 6.8 °C 1011.7 hPa SSW 13 km/h 17.7 km/h 58% 0 mm 0.0 W/m2
04:12 15 °C 7.1 °C 1011.7 hPa SSW 19.5 km/h 20.9 km/h 59% 0 mm 0.0 W/m2
04:16 15.1 °C 7.1 °C 1011.7 hPa SSW 17.7 km/h 20.9 km/h 59% 0 mm 0.0 W/m2
04:27 15.1 °C 7.1 °C 1011.7 hPa SSW 19.5 km/h 19.5 km/h 59% 0 mm 0.0 W/m2
04:53 14.8 °C 7.8 °C 1011.7 hPa SSW 16.3 km/h 19.3 km/h 63% 0 mm 0.0 W/m2
05:06 14.8 °C 7.6 °C 1012.1 hPa SSW 13 km/h 16.1 km/h 62% 0 mm 0.0 W/m2
05:11 14.9 °C 7.2 °C 1012.1 hPa SSW 13 km/h 19.3 km/h 60% 0 mm 0.0 W/m2
06:08 13.9 °C 7.4 °C 1012.4 hPa SSW 11.1 km/h 16.1 km/h 65% 0 mm 0.0 W/m2
06:18 13.8 °C 7.3 °C 1012.4 hPa SW 13 km/h 17.7 km/h 65% 0 mm 0.0 W/m2
06:37 13.9 °C 7 °C 1012.4 hPa SW 14.3 km/h 20.9 km/h 63% 0 mm 16.0 W/m2
06:38 13.9 °C 7.2 °C 1012.4 hPa SW 17.7 km/h 19.3 km/h 64% 0 mm 12.0 W/m2
07:12 14.4 °C 7.2 °C 1013.1 hPa SW 16.3 km/h 19.3 km/h 62% 0 mm 118.0 W/m2
07:19 14.6 °C 7.2 °C 1013.1 hPa SW 19.5 km/h 24.1 km/h 61% 0 mm 139.0 W/m2
07:22 14.6 °C 7.2 °C 1013.4 hPa SW 11.1 km/h 20.9 km/h 61% 0 mm 163.0 W/m2
07:30 14.7 °C 7 °C 1013.1 hPa SW 16.3 km/h 22.5 km/h 60% 0 mm 186.0 W/m2
07:32 14.8 °C 6.9 °C 1013.4 hPa SW 17.7 km/h 22.5 km/h 59% 0 mm 206.0 W/m2
07:49 15.2 °C 6.7 °C 1013.4 hPa SW 22.7 km/h 24.1 km/h 57% 0 mm 265.0 W/m2
07:52 15.3 °C 6.6 °C 1013.4 hPa SW 19.5 km/h 22.5 km/h 56% 0 mm 283.0 W/m2
07:57 15.4 °C 6.7 °C 1013.8 hPa SW 17.7 km/h 20.9 km/h 56% 0 mm 302.0 W/m2
08:08 15.6 °C 6.9 °C 1013.8 hPa SW 13 km/h 19.3 km/h 56% 0 mm 336.0 W/m2
10:03 19.6 °C 6.3 °C 1013.4 hPa SW 14.3 km/h 14.5 km/h 42% 0 mm 719.0 W/m2
10:08 20.3 °C 6.6 °C 1013.4 hPa SW 9.7 km/h 16.1 km/h 41% 0 mm 745.0 W/m2
10:24 20.8 °C 6 °C 1013.4 hPa SW 13 km/h 16.1 km/h 38% 0 mm 775.0 W/m2
10:31 21.3 °C 6 °C 1013.4 hPa SW 11.1 km/h 17.7 km/h 37% 0 mm 803.0 W/m2
10:34 21.6 °C 5.5 °C 1013.4 hPa SW 7.9 km/h 16.1 km/h 35% 0 mm 821.0 W/m2
11:00 23.2 °C 5.6 °C 1013.1 hPa SW 9.7 km/h 17.7 km/h 32% 0 mm 874.0 W/m2
11:04 23.4 °C 5.8 °C 1013.1 hPa SW 13 km/h 16.1 km/h 32% 0 mm 882.0 W/m2
11:59 26.4 °C 3.6 °C 1012.8 hPa SW 17.7 km/h 20.9 km/h 23% 0 mm 960.0 W/m2
12:04 26.9 °C 4 °C 1012.8 hPa SW 19.5 km/h 19.5 km/h 23% 0 mm 969.0 W/m2
13:25 29.8 °C -0.6 °C 1011.7 hPa Calm   9.7 km/h 14% 0 mm 993.0 W/m2
13:40 30.3 °C -1.2 °C 1011.7 hPa Calm   9.7 km/h 13% 0 mm 983.0 W/m2
13:55 30.4 °C -1.1 °C 1011.4 hPa Calm     13% 0 mm 967.0 W/m2
14:10 30.6 °C -1 °C 1011.1 hPa SSW 9.7 km/h 11.3 km/h 13% 0 mm 953.0 W/m2
14:33 31.2 °C -0.5 °C 1010.7 hPa SSW 13 km/h 19.3 km/h 13% 0 mm 921.0 W/m2
14:35 31.3 °C -0.4 °C 1010.7 hPa SSW 7.9 km/h 19.3 km/h 13% 0 mm 912.0 W/m2
14:41 31.3 °C -0.4 °C 1010.7 hPa SSW 16.3 km/h 17.7 km/h 13% 0 mm 902.0 W/m2
14:46 31.2 °C -0.5 °C 1010.7 hPa SSW 6.4 km/h 12.9 km/h 13% 0 mm 895.0 W/m2
14:56 31.6 °C -0.2 °C 1010.4 hPa SSW 11.1 km/h 19.3 km/h 13% 0 mm 875.0 W/m2
15:11 31.8 °C 0 °C 1010 hPa South 7.9 km/h 16.1 km/h 13% 0 mm 842.0 W/m2
15:26 32.1 °C 0.2 °C 1010 hPa South 13 km/h 17.7 km/h 13% 0 mm 809.0 W/m2
15:36 32.2 °C 0.3 °C 1009.7 hPa SSW 11.1 km/h 19.3 km/h 13% 0 mm 784.0 W/m2
15:51 32.4 °C 0.5 °C 1009.7 hPa South 4.7 km/h 17.7 km/h 13% 0 mm 742.0 W/m2
16:01 32.8 °C -0.3 °C 1009.4 hPa South 13 km/h 20.9 km/h 12% 0 mm 714.0 W/m2
16:15 32.9 °C -0.3 °C 1009.4 hPa SSW 13 km/h 19.3 km/h 12% 0 mm 686.0 W/m2
16:20 32.7 °C -0.4 °C 1009 hPa SSW 13 km/h 16.1 km/h 12% 0 mm 670.0 W/m2
16:27 32.7 °C -0.4 °C 1009 hPa SSW 19.5 km/h 24.1 km/h 12% 0 mm 640.0 W/m2
16:37 32.7 °C -0.4 °C 1009 hPa SSW 16.3 km/h 24.1 km/h 12% 0 mm 608.0 W/m2
16:52 33 °C -0.2 °C 1008.7 hPa SSW 14.3 km/h 20.9 km/h 12% 0 mm 555.0 W/m2
17:07 33.1 °C -1.3 °C 1008.7 hPa SSW 7.9 km/h 12.9 km/h 11% 0 mm 503.0 W/m2
17:17 33.1 °C -0.1 °C 1008.7 hPa SSW 13 km/h 20.9 km/h 12% 0 mm 466.0 W/m2
17:27 33.1 °C -1.3 °C 1008.7 hPa SSW 14.3 km/h 17.7 km/h 11% 0 mm 424.0 W/m2
17:43 32.9 °C -1.5 °C 1008.7 hPa SSW 9.7 km/h 17.7 km/h 11% 0 mm 376.0 W/m2
17:53 32.9 °C -1.5 °C 1008.7 hPa SSW 17.7 km/h 24.1 km/h 11% 0 mm 339.0 W/m2
18:03 32.7 °C -1.6 °C 1008.7 hPa SSW 9.7 km/h 12.9 km/h 11% 0 mm 301.0 W/m2
18:18 32.8 °C -1.5 °C 1009 hPa SSW 14.3 km/h 17.7 km/h 11% 0 mm 248.0 W/m2
18:33 32.6 °C -1.7 °C 1009 hPa South 13 km/h 25.7 km/h 11% 0 mm 179.0 W/m2
18:48 32.2 °C -0.8 °C 1009 hPa SSW 16.3 km/h 22.5 km/h 12% 0 mm 114.0 W/m2
19:31 30.9 °C -1.8 °C 1009.7 hPa SSW 20.9 km/h 25.7 km/h 12% 0 mm 12.0 W/m2
19:36 30.7 °C -2 °C 1009.7 hPa SSW 17.7 km/h 22.5 km/h 12% 0 mm 11.0 W/m2
19:44 30.3 °C -2.3 °C 1009.7 hPa South 22.7 km/h 25.7 km/h 12% 0 mm 5.0 W/m2
Canyon Roadhouse, Fishriver Canyon, Namibia
Compliments of Weather Underground - 2 mb